createdAt,value
2018-12-26T00:00:00.857Z,48.70
2018-12-26T00:02:29.187Z,49.60
2018-12-26T00:04:57.455Z,54.33
2018-12-26T00:07:25.722Z,48.52
2018-12-26T00:09:54.021Z,53.35
2018-12-26T00:12:22.694Z,54.23
2018-12-26T00:14:50.963Z,50.48
2018-12-26T00:17:19.255Z,48.48
2018-12-26T00:19:47.546Z,54.80
2018-12-26T00:22:15.891Z,47.75
2018-12-26T00:24:44.335Z,51.95
2018-12-26T00:27:12.599Z,51.10
2018-12-26T00:29:40.875Z,50.43
2018-12-26T00:32:09.180Z,46.70
2018-12-26T00:34:37.519Z,49.18
2018-12-26T00:37:05.792Z,55.90
2018-12-26T00:39:34.149Z,53.45
2018-12-26T00:42:02.414Z,52.03
2018-12-26T00:44:30.681Z,53.75
2018-12-26T00:46:58.988Z,65.72
2018-12-26T00:49:27.252Z,59.93
2018-12-26T00:51:55.519Z,56.42
2018-12-26T00:54:23.823Z,56.98
2018-12-26T00:56:52.095Z,58.80
2018-12-26T00:59:20.367Z,55.78
2018-12-26T01:01:48.655Z,57.98
2018-12-26T01:04:16.923Z,55.20
2018-12-26T01:06:45.191Z,55.50
2018-12-26T01:09:13.489Z,52.30
2018-12-26T01:11:41.833Z,52.03
2018-12-26T01:14:10.606Z,54.48
2018-12-26T01:16:38.995Z,53.30
2018-12-26T01:19:07.260Z,52.50
2018-12-26T01:21:35.527Z,49.27
2018-12-26T01:24:03.831Z,51.08
2018-12-26T01:26:32.172Z,46.55
2018-12-26T01:29:00.439Z,45.12
2018-12-26T01:31:28.739Z,43.68
2018-12-26T01:33:57.010Z,49.20
2018-12-26T01:36:25.286Z,51.18
2018-12-26T01:38:53.651Z,45.38
2018-12-26T01:41:21.922Z,41.45
2018-12-26T01:43:50.189Z,44.48
2018-12-26T01:46:18.655Z,43.95
2018-12-26T01:48:46.928Z,48.38
2018-12-26T01:51:15.190Z,47.15
2018-12-26T01:53:43.495Z,41.55
2018-12-26T01:56:11.768Z,45.67
2018-12-26T01:58:40.036Z,48.30
2018-12-26T02:01:08.337Z,44.77
2018-12-26T02:03:36.606Z,50.50
2018-12-26T02:06:04.884Z,43.87
2018-12-26T02:08:33.243Z,45.92
2018-12-26T02:11:01.513Z,43.02
2018-12-26T02:13:29.783Z,44.00
2018-12-26T02:15:58.090Z,39.88
2018-12-26T02:18:26.359Z,44.58
2018-12-26T02:20:54.626Z,42.90
2018-12-26T02:23:22.928Z,40.20
2018-12-26T02:25:51.194Z,45.65
2018-12-26T02:28:19.463Z,47.13
2018-12-26T02:30:48.220Z,45.30
2018-12-26T02:33:16.566Z,43.10
2018-12-26T02:35:44.836Z,40.05
2018-12-26T02:38:13.144Z,40.48
2018-12-26T02:40:41.410Z,46.23
2018-12-26T02:43:09.751Z,47.73
2018-12-26T02:45:38.055Z,43.13
2018-12-26T02:48:06.323Z,42.25
2018-12-26T02:50:34.593Z,43.65
2018-12-26T02:53:02.880Z,41.65
2018-12-26T02:55:31.147Z,42.85
2018-12-26T02:57:59.442Z,43.40
2018-12-26T03:00:27.803Z,42.88
2018-12-26T03:02:56.078Z,47.75
2018-12-26T03:05:24.347Z,44.93
2018-12-26T03:07:52.654Z,42.58
2018-12-26T03:10:20.925Z,42.70
2018-12-26T03:12:49.262Z,45.45
2018-12-26T03:15:17.567Z,45.58
2018-12-26T03:17:46.023Z,44.38
2018-12-26T03:20:14.358Z,42.62
2018-12-26T03:22:42.730Z,40.70
2018-12-26T03:25:10.995Z,44.83
2018-12-26T03:27:39.259Z,41.60
2018-12-26T03:30:08.625Z,42.95
2018-12-26T03:32:36.968Z,44.03
2018-12-26T03:35:05.423Z,42.73
2018-12-26T03:37:33.779Z,39.20
2018-12-26T03:40:02.230Z,42.25
2018-12-26T03:42:30.509Z,46.95
2018-12-26T03:45:00.461Z,42.00
2018-12-26T03:47:28.848Z,43.78
2018-12-26T03:49:57.118Z,44.67
2018-12-26T03:52:25.415Z,42.78
2018-12-26T03:54:53.764Z,40.17
2018-12-26T03:57:22.044Z,41.45
2018-12-26T03:59:50.419Z,46.42
2018-12-26T04:02:18.694Z,42.20
2018-12-26T04:04:46.961Z,39.80
2018-12-26T04:07:15.262Z,38.35
2018-12-26T04:09:43.615Z,40.80
2018-12-26T04:12:11.956Z,38.55
2018-12-26T04:14:40.254Z,42.80
2018-12-26T04:17:08.532Z,41.20
2018-12-26T04:19:36.860Z,34.48
2018-12-26T04:22:05.151Z,36.55
2018-12-26T04:24:33.459Z,41.42
2018-12-26T04:27:01.731Z,39.73
2018-12-26T04:29:30.186Z,35.10
2018-12-26T04:31:58.451Z,38.73
2018-12-26T04:34:26.719Z,43.08
2018-12-26T04:36:55.008Z,41.73
2018-12-26T04:39:23.274Z,41.37
2018-12-26T04:41:51.543Z,44.88
2018-12-26T04:44:19.830Z,42.23
2018-12-26T04:46:48.098Z,42.67
2018-12-26T04:49:16.378Z,41.85
2018-12-26T04:51:44.751Z,42.13
2018-12-26T04:54:13.018Z,42.70
2018-12-26T04:56:41.299Z,42.83
2018-12-26T04:59:09.657Z,46.00
2018-12-26T05:01:37.919Z,43.98
2018-12-26T05:04:06.183Z,44.48
2018-12-26T05:06:34.480Z,42.27
2018-12-26T05:09:02.754Z,44.25
2018-12-26T05:11:31.087Z,44.18
2018-12-26T05:13:59.374Z,42.00
2018-12-26T05:16:27.644Z,41.37
2018-12-26T05:18:55.910Z,41.15
2018-12-26T05:21:24.202Z,45.73
2018-12-26T05:23:52.479Z,39.95
2018-12-26T05:26:20.748Z,40.55
2018-12-26T05:28:49.034Z,43.08
2018-12-26T05:31:17.305Z,40.52
2018-12-26T05:33:45.585Z,42.05
2018-12-26T05:36:14.242Z,44.83
2018-12-26T05:38:42.503Z,39.55
2018-12-26T05:41:10.779Z,40.95
2018-12-26T05:43:39.150Z,40.30
2018-12-26T05:46:07.420Z,40.00
2018-12-26T05:48:35.686Z,39.20
2018-12-26T05:51:04.456Z,38.42
2018-12-26T05:53:32.722Z,38.42
2018-12-26T05:56:00.994Z,38.30
2018-12-26T05:58:29.288Z,40.52
2018-12-26T06:00:57.718Z,37.98
2018-12-26T06:03:25.998Z,42.00
2018-12-26T06:05:54.360Z,36.53
2018-12-26T06:08:22.626Z,43.92
2018-12-26T06:10:50.902Z,36.13
2018-12-26T06:13:19.191Z,41.48
2018-12-26T06:15:47.463Z,39.20
2018-12-26T06:18:15.731Z,44.30
2018-12-26T06:20:44.582Z,42.05
2018-12-26T06:23:13.272Z,38.63
2018-12-26T06:25:41.575Z,43.78
2018-12-26T06:28:09.939Z,41.90
2018-12-26T06:30:38.214Z,40.33
2018-12-26T06:33:06.484Z,44.10
2018-12-26T06:35:34.771Z,46.80
2018-12-26T06:38:03.124Z,41.68
2018-12-26T06:40:31.390Z,47.05
2018-12-26T06:42:59.686Z,37.53
2018-12-26T06:45:27.946Z,39.90
2018-12-26T06:47:56.218Z,41.18
2018-12-26T06:50:24.523Z,43.83
2018-12-26T06:52:52.794Z,42.95
2018-12-26T06:55:21.062Z,43.13
2018-12-26T06:57:49.359Z,48.28
2018-12-26T07:00:17.627Z,43.30
2018-12-26T07:02:45.901Z,38.48
2018-12-26T07:05:14.203Z,44.75
2018-12-26T07:07:42.471Z,40.63
2018-12-26T07:10:10.739Z,42.25
2018-12-26T07:12:39.029Z,46.95
2018-12-26T07:15:07.298Z,44.90
2018-12-26T07:17:35.642Z,38.73
2018-12-26T07:20:04.107Z,42.83
2018-12-26T07:22:32.379Z,45.17
2018-12-26T07:25:00.807Z,40.25
2018-12-26T07:27:29.128Z,44.18
2018-12-26T07:29:57.394Z,47.70
2018-12-26T07:32:25.659Z,46.68
2018-12-26T07:34:53.962Z,38.80
2018-12-26T07:37:22.235Z,35.00
2018-12-26T07:39:50.507Z,37.65
2018-12-26T07:42:18.805Z,33.80
2018-12-26T07:44:47.213Z,45.73
2018-12-26T07:47:15.560Z,50.60
2018-12-26T07:49:43.939Z,39.25
2018-12-26T07:52:12.291Z,39.90
2018-12-26T07:54:41.077Z,39.58
2018-12-26T07:57:09.347Z,46.42
2018-12-26T07:59:37.951Z,44.70
2018-12-26T08:02:06.296Z,45.83
2018-12-26T08:04:34.831Z,46.35
2018-12-26T08:07:03.153Z,39.58
2018-12-26T08:09:31.419Z,42.08
2018-12-26T08:11:59.717Z,42.58
2018-12-26T08:14:27.982Z,45.63
2018-12-26T08:16:56.255Z,52.55
2018-12-26T08:19:24.544Z,48.80
2018-12-26T08:21:52.819Z,47.15
2018-12-26T08:24:21.170Z,49.48
2018-12-26T08:26:49.478Z,45.10
2018-12-26T08:29:17.819Z,49.30
2018-12-26T08:31:46.091Z,50.25
2018-12-26T08:34:14.390Z,42.00
2018-12-26T08:36:42.728Z,46.42
2018-12-26T08:39:11.001Z,48.25
2018-12-26T08:41:39.300Z,46.00
2018-12-26T08:44:07.568Z,50.80
2018-12-26T08:46:35.831Z,54.70
2018-12-26T08:49:04.228Z,50.85
2018-12-26T08:51:32.495Z,50.50
2018-12-26T08:54:00.762Z,41.68
2018-12-26T08:56:29.055Z,46.75
2018-12-26T08:58:57.323Z,44.95
2018-12-26T09:01:25.891Z,48.00
2018-12-26T09:03:54.293Z,49.85
2018-12-26T09:06:22.563Z,48.60
2018-12-26T09:08:50.915Z,46.13
2018-12-26T09:11:19.208Z,47.10
2018-12-26T09:13:47.478Z,41.58
2018-12-26T09:16:15.751Z,36.50
2018-12-26T09:18:44.048Z,39.10
2018-12-26T09:21:13.916Z,39.10
2018-12-26T09:23:42.155Z,38.38
2018-12-26T09:26:10.456Z,39.73
2018-12-26T09:28:43.773Z,39.70
2018-12-26T09:31:08.722Z,41.63
2018-12-26T09:33:37.027Z,38.65
2018-12-26T09:36:05.362Z,40.67
2018-12-26T09:38:33.630Z,37.15
2018-12-26T09:41:01.935Z,36.25
2018-12-26T09:43:30.202Z,41.28
2018-12-26T09:45:58.475Z,42.40
2018-12-26T09:48:26.854Z,29.70
2018-12-26T09:50:55.133Z,34.98
2018-12-26T09:53:23.409Z,37.53
2018-12-26T09:55:51.773Z,37.95
2018-12-26T09:58:20.046Z,37.65
2018-12-26T10:00:48.312Z,34.05
2018-12-26T10:03:16.618Z,34.48
2018-12-26T10:05:44.890Z,30.95
2018-12-26T10:08:13.237Z,35.65
2018-12-26T10:10:41.529Z,34.85
2018-12-26T10:13:09.795Z,33.30
2018-12-26T10:15:38.067Z,37.58
2018-12-26T10:18:06.376Z,38.05
2018-12-26T10:20:34.650Z,36.33
2018-12-26T10:23:02.910Z,31.87
2018-12-26T10:25:32.243Z,34.90
2018-12-26T10:28:00.512Z,34.53
2018-12-26T10:30:28.780Z,35.90
2018-12-26T10:32:57.082Z,36.88
2018-12-26T10:35:25.350Z,34.55
2018-12-26T10:37:53.626Z,33.63
2018-12-26T10:40:21.907Z,31.20
2018-12-26T10:42:50.183Z,36.23
2018-12-26T10:45:18.453Z,37.25
2018-12-26T10:47:46.765Z,34.90
2018-12-26T10:50:15.071Z,35.15
2018-12-26T10:52:43.347Z,35.70
2018-12-26T10:55:11.651Z,34.95
2018-12-26T10:57:39.936Z,34.10
2018-12-26T11:00:10.652Z,36.35
2018-12-26T11:02:39.072Z,30.55
2018-12-26T11:05:07.594Z,31.80
2018-12-26T11:07:35.862Z,29.12
2018-12-26T11:10:04.347Z,30.72
2018-12-26T11:12:32.615Z,32.45
2018-12-26T11:15:00.959Z,31.77
2018-12-26T11:17:29.826Z,29.55
2018-12-26T11:19:58.102Z,30.57
2018-12-26T11:22:26.446Z,29.85
2018-12-26T11:24:54.747Z,30.72
2018-12-26T11:27:23.083Z,30.70
2018-12-26T11:29:51.361Z,30.62
2018-12-26T11:32:19.665Z,30.02
2018-12-26T11:34:48.223Z,30.48
2018-12-26T11:37:16.583Z,29.55
2018-12-26T11:39:44.887Z,27.00
2018-12-26T11:42:13.156Z,29.75
2018-12-26T11:44:41.434Z,32.30
2018-12-26T11:47:09.796Z,31.02
2018-12-26T11:49:38.140Z,31.35
2018-12-26T11:52:07.221Z,33.30
2018-12-26T11:54:35.643Z,28.27
2018-12-26T11:57:03.919Z,29.50
2018-12-26T11:59:32.187Z,30.08
2018-12-26T12:02:00.515Z,28.90
2018-12-26T12:04:28.836Z,33.65
2018-12-26T12:06:57.198Z,33.55
2018-12-26T12:09:25.577Z,28.80
2018-12-26T12:11:53.915Z,29.70
2018-12-26T12:14:22.203Z,32.98
2018-12-26T12:16:50.583Z,28.15
2018-12-26T12:19:18.874Z,31.97
2018-12-26T12:21:47.218Z,33.05
2018-12-26T12:24:15.523Z,29.12
2018-12-26T12:26:43.867Z,28.45
2018-12-26T12:29:12.158Z,26.25
2018-12-26T12:31:40.467Z,30.55
2018-12-26T12:34:08.812Z,32.75
2018-12-26T12:36:37.085Z,29.75
2018-12-26T12:39:06.161Z,33.00
2018-12-26T12:41:34.579Z,32.30
2018-12-26T12:44:03.031Z,32.17
2018-12-26T12:46:31.323Z,32.78
2018-12-26T12:48:59.663Z,31.27
2018-12-26T12:51:27.938Z,30.15
2018-12-26T12:53:56.236Z,26.07
2018-12-26T12:56:24.512Z,26.25
2018-12-26T12:58:52.788Z,26.70
2018-12-26T13:01:21.155Z,30.35
2018-12-26T13:03:49.422Z,27.40
2018-12-26T13:06:17.863Z,31.87
2018-12-26T13:08:46.167Z,25.05
2018-12-26T13:11:14.472Z,29.50
2018-12-26T13:13:42.743Z,35.55
2018-12-26T13:16:11.042Z,29.07
2018-12-26T13:18:39.315Z,31.23
2018-12-26T13:21:07.588Z,29.67
2018-12-26T13:23:35.879Z,27.85
2018-12-26T13:26:04.155Z,34.65
2018-12-26T13:28:32.426Z,28.87
2018-12-26T13:31:05.173Z,27.87
2018-12-26T13:33:30.723Z,29.82
2018-12-26T13:35:58.995Z,37.65
2018-12-26T13:38:27.299Z,30.45
2018-12-26T13:40:55.570Z,28.32
2018-12-26T13:43:23.850Z,30.02
2018-12-26T13:45:52.226Z,25.97
2018-12-26T13:48:20.571Z,31.37
2018-12-26T13:50:48.843Z,31.70
2018-12-26T13:53:18.048Z,35.80
2018-12-26T13:55:46.321Z,31.25
2018-12-26T13:58:14.590Z,30.10
2018-12-26T14:00:42.892Z,32.58
2018-12-26T14:03:11.167Z,33.80
2018-12-26T14:05:39.439Z,32.85
2018-12-26T14:08:08.012Z,36.88
2018-12-26T14:10:36.287Z,40.45
2018-12-26T14:13:04.630Z,38.35
2018-12-26T14:15:33.000Z,63.08
2018-12-26T14:18:01.276Z,75.10
2018-12-26T14:20:29.548Z,61.48
2018-12-26T14:22:57.858Z,47.78
2018-12-26T14:25:26.204Z,48.40
2018-12-26T14:27:54.478Z,41.28
2018-12-26T14:30:22.782Z,37.95
2018-12-26T14:32:51.054Z,43.83
2018-12-26T14:35:19.443Z,33.10
2018-12-26T14:37:47.880Z,31.12
2018-12-26T14:40:16.217Z,34.18
2018-12-26T14:42:44.486Z,38.02
2018-12-26T14:45:12.783Z,44.85
2018-12-26T14:47:41.063Z,30.25
2018-12-26T14:50:09.339Z,28.27
2018-12-26T14:52:37.639Z,35.48
2018-12-26T14:55:05.900Z,29.02
2018-12-26T14:57:34.166Z,26.10
2018-12-26T15:00:02.450Z,27.07
2018-12-26T15:02:30.724Z,29.63
2018-12-26T15:04:59.007Z,35.85
2018-12-26T15:07:27.329Z,33.23
2018-12-26T15:09:55.667Z,30.50
2018-12-26T15:12:23.987Z,33.80
2018-12-26T15:14:52.282Z,28.27
2018-12-26T15:17:21.731Z,28.50
2018-12-26T15:19:50.414Z,30.32
2018-12-26T15:22:18.800Z,30.08
2018-12-26T15:24:47.095Z,36.35
2018-12-26T15:27:15.432Z,29.77
2018-12-26T15:29:43.787Z,33.60
2018-12-26T15:32:12.128Z,35.85
2018-12-26T15:34:40.407Z,50.10
2018-12-26T15:37:08.707Z,46.92
2018-12-26T15:39:37.047Z,43.75
2018-12-26T15:42:05.403Z,47.35
2018-12-26T15:44:33.708Z,43.20
2018-12-26T15:47:01.979Z,40.12
2018-12-26T15:49:30.242Z,49.13
2018-12-26T15:51:58.534Z,46.35
2018-12-26T15:54:26.803Z,53.85
2018-12-26T15:56:55.086Z,48.40
2018-12-26T15:59:23.379Z,51.90
2018-12-26T16:01:51.653Z,51.08
2018-12-26T16:04:19.987Z,58.05
2018-12-26T16:06:48.287Z,57.38
2018-12-26T16:09:16.558Z,53.50
2018-12-26T16:11:44.826Z,48.75
2018-12-26T16:14:13.212Z,48.48
2018-12-26T16:16:41.475Z,54.60
2018-12-26T16:19:09.827Z,56.25
2018-12-26T16:21:38.125Z,61.37
2018-12-26T16:24:06.392Z,57.60
2018-12-26T16:26:34.660Z,50.88
2018-12-26T16:29:02.974Z,54.60
2018-12-26T16:31:31.337Z,46.53
2018-12-26T16:33:59.705Z,60.03
2018-12-26T16:36:28.086Z,63.90
2018-12-26T16:38:56.429Z,54.40
2018-12-26T16:41:24.770Z,59.20
2018-12-26T16:43:53.070Z,64.10
2018-12-26T16:46:21.335Z,57.53
2018-12-26T16:48:49.603Z,54.45
2018-12-26T16:51:17.909Z,57.20
2018-12-26T16:53:46.336Z,61.70
2018-12-26T16:56:14.602Z,71.42
2018-12-26T16:58:42.914Z,62.48
2018-12-26T17:01:11.256Z,55.88
2018-12-26T17:03:39.525Z,60.88
2018-12-26T17:06:07.832Z,59.05
2018-12-26T17:08:36.102Z,59.10
2018-12-26T17:11:04.511Z,54.08
2018-12-26T17:13:32.958Z,73.07
2018-12-26T17:16:01.247Z,77.00
2018-12-26T17:18:29.635Z,93.17
2018-12-26T17:20:58.044Z,186.20
2018-12-26T17:23:26.385Z,120.35
2018-12-26T17:25:54.655Z,93.12
2018-12-26T17:28:22.947Z,82.72
2018-12-26T17:30:51.224Z,102.25
2018-12-26T17:33:19.567Z,110.75
2018-12-26T17:35:47.878Z,92.00
2018-12-26T17:38:16.215Z,70.62
2018-12-26T17:40:44.485Z,69.20
2018-12-26T17:43:12.779Z,67.97
2018-12-26T17:45:41.054Z,67.47
2018-12-26T17:48:09.330Z,74.40
2018-12-26T17:50:41.156Z,79.85
2018-12-26T17:53:12.933Z,78.75
2018-12-26T17:56:03.590Z,88.90
2018-12-26T17:58:44.024Z,72.12
2018-12-26T18:01:31.690Z,76.33
2018-12-26T18:03:59.971Z,76.82
2018-12-26T18:06:28.314Z,62.90
2018-12-26T18:08:56.670Z,70.05
2018-12-26T18:11:24.940Z,71.05
2018-12-26T18:13:53.350Z,78.45
2018-12-26T18:16:21.648Z,67.95
2018-12-26T18:18:49.917Z,61.58
2018-12-26T18:21:18.187Z,68.07
2018-12-26T18:23:47.032Z,74.12
2018-12-26T18:26:15.301Z,80.70
2018-12-26T18:28:43.570Z,77.60
2018-12-26T18:31:11.953Z,77.87
2018-12-26T18:33:40.292Z,87.35
2018-12-26T18:36:08.580Z,106.52
2018-12-26T18:38:36.936Z,94.90
2018-12-26T18:41:05.297Z,106.35
2018-12-26T18:43:33.651Z,120.77
2018-12-26T18:46:02.399Z,99.05
2018-12-26T18:48:30.676Z,91.55
2018-12-26T18:50:58.961Z,97.02
2018-12-26T18:53:27.330Z,108.72
2018-12-26T18:55:55.604Z,96.60
2018-12-26T18:58:24.043Z,102.85
2018-12-26T19:00:52.567Z,81.20
2018-12-26T19:03:20.844Z,71.42
2018-12-26T19:05:49.123Z,71.05
2018-12-26T19:08:17.526Z,75.45
2018-12-26T19:10:45.871Z,74.22
2018-12-26T19:13:14.151Z,81.60
2018-12-26T19:15:42.519Z,83.10
2018-12-26T19:18:10.792Z,98.50
2018-12-26T19:20:39.061Z,83.62
2018-12-26T19:23:07.369Z,102.07
2018-12-26T19:25:35.719Z,107.75
2018-12-26T19:28:04.120Z,99.22
2018-12-26T19:30:32.443Z,114.72
2018-12-26T19:33:00.724Z,115.72
2018-12-26T19:35:29.169Z,122.60
2018-12-26T19:37:57.461Z,101.55
2018-12-26T19:40:25.801Z,84.55
2018-12-26T19:42:54.066Z,92.05
2018-12-26T19:45:22.372Z,95.65
2018-12-26T19:47:50.711Z,94.55
2018-12-26T19:50:19.236Z,104.15
2018-12-26T19:52:47.543Z,108.30
2018-12-26T19:55:15.819Z,112.15
2018-12-26T19:57:44.107Z,119.40
2018-12-26T20:00:12.489Z,102.82
2018-12-26T20:02:40.837Z,101.53
2018-12-26T20:05:09.111Z,107.43
2018-12-26T20:07:37.420Z,101.42
2018-12-26T20:10:08.535Z,107.00
2018-12-26T20:12:36.880Z,101.85
2018-12-26T20:15:06.919Z,96.25
2018-12-26T20:17:35.191Z,90.07
2018-12-26T20:20:04.898Z,85.57
2018-12-26T20:22:33.201Z,80.42
2018-12-26T20:25:01.473Z,86.12
2018-12-26T20:27:29.828Z,101.65
2018-12-26T20:29:58.204Z,95.45
2018-12-26T20:32:26.472Z,99.65
2018-12-26T20:34:54.745Z,92.15
2018-12-26T20:37:23.036Z,86.65
2018-12-26T20:39:51.310Z,92.97
2018-12-26T20:42:19.579Z,88.92
2018-12-26T20:44:47.878Z,99.42
2018-12-26T20:47:16.169Z,79.90
2018-12-26T20:49:44.503Z,95.75
2018-12-26T20:52:12.799Z,86.28
2018-12-26T20:54:41.072Z,77.55
2018-12-26T20:57:09.335Z,91.25
2018-12-26T20:59:38.398Z,108.67
2018-12-26T21:02:07.635Z,87.15
2018-12-26T21:04:35.909Z,96.82
2018-12-26T21:07:04.588Z,94.60
2018-12-26T21:09:32.863Z,86.05
2018-12-26T21:12:01.216Z,99.03
2018-12-26T21:14:29.652Z,82.82
2018-12-26T21:16:58.015Z,83.78
2018-12-26T21:19:26.363Z,82.95
2018-12-26T21:21:55.171Z,85.40
2018-12-26T21:24:23.575Z,87.55
2018-12-26T21:26:51.917Z,88.78
2018-12-26T21:29:20.289Z,77.08
2018-12-26T21:31:48.639Z,94.10
2018-12-26T21:34:16.919Z,81.78
2018-12-26T21:36:45.284Z,85.00
2018-12-26T21:39:13.559Z,99.50
2018-12-26T21:41:41.837Z,102.40
2018-12-26T21:44:10.152Z,93.35
2018-12-26T21:46:38.432Z,107.45
2018-12-26T21:49:06.775Z,102.10
2018-12-26T21:51:35.352Z,87.02
2018-12-26T21:54:03.632Z,94.45
2018-12-26T21:56:31.992Z,103.50
2018-12-26T21:59:00.433Z,113.20
2018-12-26T22:01:28.710Z,100.95
2018-12-26T22:03:56.979Z,98.03
2018-12-26T22:06:25.279Z,105.12
2018-12-26T22:08:53.552Z,102.95
2018-12-26T22:11:21.969Z,94.95
2018-12-26T22:13:50.279Z,99.50
2018-12-26T22:16:18.644Z,100.90
2018-12-26T22:18:47.335Z,98.60
2018-12-26T22:21:15.656Z,100.72
2018-12-26T22:23:44.456Z,98.95
2018-12-26T22:26:12.726Z,94.52
2018-12-26T22:28:41.028Z,108.32
2018-12-26T22:31:09.300Z,90.28
2018-12-26T22:33:37.578Z,90.20
2018-12-26T22:36:05.951Z,98.15
2018-12-26T22:38:34.234Z,88.50
2018-12-26T22:41:02.576Z,82.00
2018-12-26T22:43:50.331Z,85.65
2018-12-26T22:46:18.669Z,90.90
2018-12-26T22:48:46.939Z,77.47
2018-12-26T22:51:15.843Z,78.72
2018-12-26T22:53:44.115Z,93.40
2018-12-26T22:56:12.388Z,84.45
2018-12-26T22:58:40.759Z,76.10
2018-12-26T23:01:09.027Z,58.40
2018-12-26T23:03:37.296Z,62.55
2018-12-26T23:06:05.588Z,86.85
2018-12-26T23:08:33.859Z,83.05
2018-12-26T23:11:02.327Z,77.53
2018-12-26T23:13:30.691Z,77.95
2018-12-26T23:15:58.968Z,63.20
2018-12-26T23:18:27.312Z,64.97
2018-12-26T23:20:56.554Z,61.85
2018-12-26T23:23:24.913Z,58.63
2018-12-26T23:25:53.253Z,60.88
2018-12-26T23:28:21.555Z,59.93
2018-12-26T23:30:49.838Z,57.98
2018-12-26T23:33:18.176Z,60.63
2018-12-26T23:35:46.563Z,63.87
2018-12-26T23:38:14.909Z,60.35
2018-12-26T23:40:43.187Z,57.98
2018-12-26T23:43:11.652Z,63.95
2018-12-26T23:45:39.924Z,58.42
2018-12-26T23:48:08.203Z,57.95
2018-12-26T23:50:36.579Z,57.55
2018-12-26T23:53:04.852Z,60.40
2018-12-26T23:55:33.131Z,64.27
2018-12-26T23:58:01.969Z,58.38
